Terminal Aerodrome Forecast
Issued by NWS

Current Version | Previous Version | Graphics & Text | Print | Product List | Glossary On
Versions: 1 2 3 4 5 6 7 8 9 10 11 12 13 14 15 16 17 18 19 20 21 22 23 24 25 26
795
FTUS41 KILN 141946 AAA
TAFLCK
TAF AMD
KLCK 141946Z 1420/1518 02005KT 5SM -FZRA BR OVC008
     FM142200 33004KT 5SM BR OVC008
     FM150200 34004KT P6SM OVC040
     FM151700 VRB03KT P6SM SCT100=

USA.gov is the U.S. government's official web portal to all federal, state and local government web resources and services.